Eastside, Oklahoma
Current Conditions -  °F | °C
As of 9:32 PM on Monday 20 Oct 2014 (Local Time) from KBVO Reporting Station
Haze Haze  
Wind Chill: 54°   Ceiling: Unl
Heat Index: 54°   Visibility: 4mi
Dew Point: 54°   Wind: 0mph
Humidity: 100%   Direction: NA
Pressure: 30.06"   Gusts: NA
Location:  36.7204°N, 95.8873°W
Report Text: KBVO 210232Z AUTO 00000KT 4SM BR CLR 12/12 A3006 RMK AO2 T01220122
Loading
Personal Weather Stations






























Interactive Weather Map
Tropical Storm Tracking
New forecast layout! Learn more

10-Day Weather Forecast

Advertisements
Track Severe Weather on mobile